createdAt,value
2022-08-16T00:01:16.599Z,15.95
2022-08-16T00:03:18.973Z,17.60
2022-08-16T00:05:22.839Z,18.35
2022-08-16T00:07:25.042Z,15.43
2022-08-16T00:09:31.115Z,16.08
2022-08-16T00:11:33.234Z,17.80
2022-08-16T00:13:41.686Z,20.33
2022-08-16T00:15:50.887Z,19.17
2022-08-16T00:17:56.558Z,17.90
2022-08-16T00:19:59.651Z,16.92
2022-08-16T00:22:06.803Z,20.75
2022-08-16T00:24:31.163Z,19.60
2022-08-16T00:26:38.705Z,21.52
2022-08-16T00:28:45.795Z,13.63
2022-08-16T00:30:48.134Z,19.73
2022-08-16T00:32:53.160Z,14.23
2022-08-16T00:35:00.606Z,13.95
2022-08-16T00:37:04.173Z,15.75
2022-08-16T00:41:08.278Z,21.23
2022-08-16T00:43:19.354Z,15.35
2022-08-16T00:46:01.078Z,15.73
2022-08-16T00:48:28.646Z,16.67
2022-08-16T00:50:36.485Z,18.83
2022-08-16T00:52:45.945Z,23.38
2022-08-16T00:54:53.548Z,22.05
2022-08-16T00:57:00.154Z,23.17
2022-08-16T00:59:02.304Z,17.38
2022-08-16T01:01:08.242Z,16.40
2022-08-16T01:03:12.810Z,17.27
2022-08-16T01:05:14.966Z,21.38
2022-08-16T01:07:17.802Z,17.25
2022-08-16T01:09:20.019Z,21.30
2022-08-16T01:11:25.179Z,16.17
2022-08-16T01:13:30.889Z,18.27
2022-08-16T01:15:36.979Z,15.10
2022-08-16T01:17:45.361Z,17.17
2022-08-16T01:22:47.944Z,12.70
2022-08-16T01:25:07.420Z,20.33
2022-08-16T01:27:42.494Z,14.30
2022-08-16T01:30:20.007Z,13.88
2022-08-16T01:32:31.446Z,20.80
2022-08-16T01:34:33.997Z,17.00
2022-08-16T01:36:58.333Z,20.70
2022-08-16T01:39:00.614Z,17.25
2022-08-16T01:41:13.230Z,13.35
2022-08-16T01:43:21.666Z,17.70
2022-08-16T01:45:39.806Z,16.95
2022-08-16T01:47:49.273Z,19.80
2022-08-16T01:50:42.220Z,19.63
2022-08-16T01:52:29.711Z,20.45
2022-08-16T01:54:32.543Z,17.05
2022-08-16T01:56:40.120Z,16.15
2022-08-16T02:00:50.253Z,19.30
2022-08-16T02:02:53.966Z,18.38
2022-08-16T02:04:57.415Z,20.58
2022-08-16T02:06:59.854Z,21.98
2022-08-16T02:09:01.961Z,16.15
2022-08-16T02:11:08.682Z,18.95
2022-08-16T02:13:10.683Z,15.05
2022-08-16T02:15:14.255Z,22.27
2022-08-16T02:17:16.323Z,19.35
2022-08-16T02:19:19.865Z,20.13
2022-08-16T02:21:31.233Z,22.38
2022-08-16T02:23:34.629Z,22.48
2022-08-16T02:25:52.692Z,19.23
2022-08-16T02:27:57.041Z,19.60
2022-08-16T02:30:04.912Z,17.73
2022-08-16T02:32:50.837Z,20.95
2022-08-16T02:34:34.719Z,18.00
2022-08-16T02:36:49.736Z,24.40
2022-08-16T02:38:52.917Z,19.35
2022-08-16T02:40:56.656Z,21.23
2022-08-16T02:42:58.685Z,20.10
2022-08-16T02:45:02.301Z,17.42
2022-08-16T02:47:04.314Z,18.48
2022-08-16T02:49:07.258Z,16.02
2022-08-16T02:51:11.716Z,23.35
2022-08-16T02:53:13.930Z,23.17
2022-08-16T02:55:41.290Z,18.35
2022-08-16T02:57:54.186Z,18.90
2022-08-16T02:59:56.800Z,15.68
2022-08-16T03:01:59.124Z,21.65
2022-08-16T03:04:30.131Z,18.33
2022-08-16T03:08:52.144Z,27.20
2022-08-16T03:10:54.810Z,21.60
2022-08-16T03:13:01.845Z,27.73
2022-08-16T03:15:09.429Z,19.23
2022-08-16T03:17:12.116Z,21.48
2022-08-16T03:19:14.099Z,20.13
2022-08-16T03:21:16.102Z,21.25
2022-08-16T03:23:20.591Z,22.27
2022-08-16T03:25:25.228Z,17.00
2022-08-16T03:27:44.281Z,17.75
2022-08-16T03:29:54.913Z,20.17
2022-08-16T03:31:58.995Z,17.90
2022-08-16T03:34:01.516Z,18.70
2022-08-16T03:36:30.938Z,17.33
2022-08-16T03:38:34.418Z,21.83
2022-08-16T03:40:37.352Z,22.85
2022-08-16T03:43:19.288Z,25.08
2022-08-16T03:45:03.546Z,19.33
2022-08-16T03:47:10.116Z,18.02
2022-08-16T03:49:13.186Z,18.40
2022-08-16T03:51:15.504Z,17.08
2022-08-16T03:53:17.588Z,17.23
2022-08-16T03:55:19.628Z,18.73
2022-08-16T03:59:24.716Z,19.00
2022-08-16T04:01:29.265Z,26.58
2022-08-16T04:03:32.080Z,21.25
2022-08-16T04:05:44.027Z,21.02
2022-08-16T04:07:46.439Z,25.20
2022-08-16T04:09:52.807Z,24.48
2022-08-16T04:11:54.851Z,21.10
2022-08-16T04:13:59.209Z,25.08
2022-08-16T04:16:26.769Z,21.95
2022-08-16T04:18:30.937Z,19.85
2022-08-16T04:20:36.938Z,21.33
2022-08-16T04:22:39.814Z,20.65
2022-08-16T04:24:41.931Z,23.92
2022-08-16T04:26:56.558Z,25.95
2022-08-16T04:29:21.645Z,17.17
2022-08-16T04:31:23.685Z,24.73
2022-08-16T04:33:27.162Z,22.60
2022-08-16T04:35:34.212Z,23.92
2022-08-16T04:37:42.033Z,19.13
2022-08-16T04:39:47.339Z,20.92
2022-08-16T04:41:57.506Z,24.00
2022-08-16T04:44:00.884Z,25.65
2022-08-16T04:46:03.213Z,26.30
2022-08-16T04:48:05.864Z,21.17
2022-08-16T04:50:18.149Z,21.33
2022-08-16T04:52:35.233Z,19.27
2022-08-16T04:54:37.698Z,24.50
2022-08-16T04:56:46.316Z,20.92
2022-08-16T04:58:50.681Z,18.38
2022-08-16T05:00:52.982Z,25.63
2022-08-16T05:02:56.113Z,22.92
2022-08-16T05:04:58.354Z,20.13
2022-08-16T05:07:00.644Z,25.17
2022-08-16T05:09:02.830Z,25.30
2022-08-16T05:13:15.535Z,24.45
2022-08-16T05:15:17.965Z,23.05
2022-08-16T05:17:24.784Z,22.58
2022-08-16T05:19:27.039Z,27.10
2022-08-16T05:21:38.847Z,21.55
2022-08-16T05:23:44.278Z,21.75
2022-08-16T05:25:49.014Z,22.85
2022-08-16T05:27:51.783Z,25.77
2022-08-16T05:29:57.032Z,24.00
2022-08-16T05:32:03.285Z,23.90
2022-08-16T05:34:25.324Z,24.40
2022-08-16T05:36:33.821Z,21.02
2022-08-16T05:38:39.638Z,23.17
2022-08-16T05:40:42.214Z,21.65
2022-08-16T05:42:59.319Z,22.38
2022-08-16T05:45:06.973Z,25.15
2022-08-16T05:47:09.222Z,22.27
2022-08-16T05:49:22.183Z,26.52
2022-08-16T05:51:37.660Z,25.10
2022-08-16T05:53:41.385Z,23.38
2022-08-16T05:55:43.508Z,26.17
2022-08-16T05:57:52.611Z,27.20
2022-08-16T05:59:59.755Z,22.80
2022-08-16T06:02:02.821Z,24.30
2022-08-16T06:04:13.626Z,25.40
2022-08-16T06:06:30.415Z,27.33
2022-08-16T06:08:42.052Z,22.92
2022-08-16T06:11:09.715Z,20.95
2022-08-16T06:13:06.518Z,21.63
2022-08-16T06:15:15.038Z,26.85
2022-08-16T06:17:19.479Z,21.08
2022-08-16T06:19:23.784Z,25.52
2022-08-16T06:21:25.842Z,25.42
2022-08-16T06:23:27.862Z,25.55
2022-08-16T06:25:36.755Z,23.17
2022-08-16T06:27:41.707Z,24.38
2022-08-16T06:29:59.252Z,25.60
2022-08-16T06:32:01.247Z,24.60
2022-08-16T06:34:03.318Z,25.40
2022-08-16T06:36:26.714Z,22.92
2022-08-16T06:38:33.483Z,23.02
2022-08-16T06:40:36.433Z,23.92
2022-08-16T06:42:47.317Z,21.75
2022-08-16T06:44:50.503Z,19.20
2022-08-16T06:46:52.494Z,28.90
2022-08-16T06:48:54.523Z,19.33
2022-08-16T06:50:58.578Z,23.52
2022-08-16T06:53:19.860Z,20.23
2022-08-16T06:55:22.044Z,26.83
2022-08-16T06:57:26.843Z,21.17
2022-08-16T06:59:29.185Z,23.02
2022-08-16T07:03:54.936Z,20.77
2022-08-16T07:05:58.123Z,21.80
2022-08-16T07:10:09.621Z,20.13
2022-08-16T07:12:11.648Z,21.90
2022-08-16T07:14:25.004Z,22.52
2022-08-16T07:16:28.902Z,21.52
2022-08-16T07:18:30.914Z,22.65
2022-08-16T07:20:47.467Z,26.33
2022-08-16T07:22:58.806Z,20.85
2022-08-16T07:25:01.423Z,18.92
2022-08-16T07:27:04.259Z,24.05
2022-08-16T07:29:10.682Z,26.23
2022-08-16T07:31:13.032Z,21.75
2022-08-16T07:33:51.371Z,27.50
2022-08-16T07:35:44.211Z,24.30
2022-08-16T07:37:51.326Z,20.42
2022-08-16T07:39:56.872Z,27.17
2022-08-16T07:41:59.743Z,22.88
2022-08-16T07:44:02.165Z,23.50
2022-08-16T07:46:39.079Z,20.40
2022-08-16T07:48:40.415Z,17.95
2022-08-16T07:50:55.942Z,31.60
2022-08-16T07:53:02.130Z,18.23
2022-08-16T07:55:04.725Z,21.70
2022-08-16T07:59:13.619Z,19.65
2022-08-16T08:01:16.472Z,20.42
2022-08-16T08:03:18.899Z,17.58
2022-08-16T08:05:25.533Z,18.75
2022-08-16T08:07:38.034Z,18.10
2022-08-16T08:09:47.253Z,20.20
2022-08-16T08:12:00.717Z,20.13
2022-08-16T08:14:06.879Z,21.90
2022-08-16T08:16:18.601Z,24.08
2022-08-16T08:18:30.138Z,22.75
2022-08-16T08:20:33.684Z,16.35
2022-08-16T08:22:36.758Z,21.13
2022-08-16T08:24:44.023Z,17.48
2022-08-16T08:26:50.093Z,16.02
2022-08-16T08:28:52.798Z,19.80
2022-08-16T08:31:02.407Z,17.73
2022-08-16T08:33:05.767Z,19.60
2022-08-16T08:35:11.801Z,21.40
2022-08-16T08:37:14.207Z,17.05
2022-08-16T08:39:20.911Z,15.32
2022-08-16T08:41:28.276Z,17.98
2022-08-16T08:43:30.782Z,28.00
2022-08-16T08:45:48.092Z,20.92
2022-08-16T08:47:58.327Z,23.55
2022-08-16T08:50:00.818Z,23.55
2022-08-16T08:52:08.176Z,23.25
2022-08-16T08:54:11.375Z,20.08
2022-08-16T08:56:23.330Z,22.02
2022-08-16T08:58:34.083Z,20.00
2022-08-16T09:00:51.069Z,21.13
2022-08-16T09:02:54.161Z,18.98
2022-08-16T09:04:58.708Z,19.02
2022-08-16T09:07:01.715Z,18.75
2022-08-16T09:11:07.330Z,19.13
2022-08-16T09:13:10.613Z,16.92
2022-08-16T09:15:14.331Z,17.20
2022-08-16T09:17:37.980Z,19.70
2022-08-16T09:19:41.001Z,15.45
2022-08-16T09:21:43.469Z,15.07
2022-08-16T09:23:45.888Z,17.23
2022-08-16T09:25:49.115Z,22.00
2022-08-16T09:27:57.733Z,23.15
2022-08-16T09:30:33.625Z,12.90
2022-08-16T09:34:33.320Z,22.80
2022-08-16T09:36:35.332Z,15.63
2022-08-16T09:40:44.286Z,17.95
2022-08-16T09:42:56.532Z,14.60
2022-08-16T09:45:10.885Z,13.65
2022-08-16T09:47:18.367Z,14.23
2022-08-16T09:49:26.366Z,14.35
2022-08-16T09:51:39.972Z,12.98
2022-08-16T09:53:43.185Z,13.68
2022-08-16T09:55:49.608Z,15.23
2022-08-16T09:57:53.064Z,15.65
2022-08-16T09:59:56.394Z,14.52
2022-08-16T10:01:58.778Z,12.32
2022-08-16T10:04:04.139Z,11.48
2022-08-16T10:06:07.797Z,13.25
2022-08-16T10:08:26.368Z,21.05
2022-08-16T10:10:30.824Z,16.48
2022-08-16T10:12:55.596Z,12.43
2022-08-16T10:14:58.832Z,14.85
2022-08-16T10:17:04.623Z,11.45
2022-08-16T10:19:07.582Z,9.98
2022-08-16T10:21:10.664Z,14.02
2022-08-16T10:23:17.098Z,9.48
2022-08-16T10:27:18.204Z,10.52
2022-08-16T10:27:46.023Z,11.07
2022-08-16T10:30:00.317Z,12.18
2022-08-16T10:32:03.942Z,10.73
2022-08-16T10:34:06.275Z,9.93
2022-08-16T10:36:39.294Z,13.70
2022-08-16T10:38:42.328Z,13.57
2022-08-16T10:40:45.492Z,11.80
2022-08-16T10:42:50.320Z,10.13
2022-08-16T10:44:53.813Z,10.05
2022-08-16T10:46:56.771Z,12.30
2022-08-16T10:48:58.774Z,11.10
2022-08-16T10:51:03.402Z,9.68
2022-08-16T10:53:07.780Z,11.57
2022-08-16T10:57:34.827Z,9.27
2022-08-16T10:59:51.858Z,12.70
2022-08-16T11:05:05.438Z,12.23
2022-08-16T11:07:06.697Z,11.75
2022-08-16T11:09:25.362Z,24.38
2022-08-16T11:11:28.099Z,14.68
2022-08-16T11:15:55.674Z,12.13
2022-08-16T11:22:48.422Z,14.20
2022-08-16T11:25:11.809Z,14.43
2022-08-16T11:27:20.557Z,11.45
2022-08-16T11:29:26.753Z,14.48
2022-08-16T11:31:29.159Z,12.88
2022-08-16T11:38:46.759Z,10.15
2022-08-16T11:40:56.868Z,13.30
2022-08-16T11:43:04.125Z,11.77
2022-08-16T11:45:07.420Z,13.05
2022-08-16T11:47:09.677Z,17.23
2022-08-16T11:49:13.992Z,13.82
2022-08-16T11:51:16.254Z,10.98
2022-08-16T11:53:21.234Z,10.10
2022-08-16T11:55:24.060Z,10.68
2022-08-16T11:59:29.400Z,13.30
2022-08-16T12:01:44.481Z,11.40
2022-08-16T12:03:54.362Z,12.68
2022-08-16T12:05:56.938Z,10.82
2022-08-16T12:10:06.355Z,12.20
2022-08-16T12:12:10.500Z,10.63
2022-08-16T12:14:14.343Z,12.48
2022-08-16T12:16:20.671Z,14.05
2022-08-16T12:18:22.969Z,9.75
2022-08-16T12:20:30.376Z,12.13
2022-08-16T12:22:36.677Z,11.13
2022-08-16T12:24:38.912Z,10.02
2022-08-16T12:28:53.986Z,9.80
2022-08-16T12:30:58.325Z,15.20
2022-08-16T12:33:02.985Z,9.85
2022-08-16T12:35:07.559Z,9.68
2022-08-16T12:37:11.492Z,10.60
2022-08-16T12:39:14.561Z,17.77
2022-08-16T12:41:24.701Z,11.23
2022-08-16T12:43:31.208Z,10.52
2022-08-16T12:45:37.012Z,13.90
2022-08-16T12:48:16.031Z,11.65
2022-08-16T12:50:20.068Z,15.48
2022-08-16T12:54:37.468Z,13.35
2022-08-16T12:56:42.797Z,21.73
2022-08-16T12:58:48.460Z,16.45
2022-08-16T13:00:52.753Z,13.63
2022-08-16T13:02:54.769Z,15.68
2022-08-16T13:04:56.769Z,10.68
2022-08-16T13:07:04.609Z,15.43
2022-08-16T13:09:20.864Z,12.07
2022-08-16T13:11:38.555Z,11.32
2022-08-16T13:13:43.471Z,6.90
2022-08-16T13:15:51.723Z,7.45
2022-08-16T13:18:00.419Z,8.07
2022-08-16T13:20:11.053Z,7.30
2022-08-16T13:22:19.542Z,9.60
2022-08-16T13:24:21.883Z,6.90
2022-08-16T13:26:26.453Z,7.10
2022-08-16T13:28:28.695Z,5.82
2022-08-16T13:30:41.268Z,6.60
2022-08-16T13:32:44.211Z,13.57
2022-08-16T13:34:47.858Z,9.80
2022-08-16T13:36:51.846Z,9.38
2022-08-16T13:38:54.364Z,9.23
2022-08-16T13:40:57.016Z,7.65
2022-08-16T13:42:59.448Z,9.05
2022-08-16T13:45:01.451Z,7.43
2022-08-16T13:47:04.314Z,9.20
2022-08-16T13:49:06.966Z,8.70
2022-08-16T13:51:08.989Z,8.88
2022-08-16T13:53:17.861Z,10.05
2022-08-16T13:55:19.842Z,10.48
2022-08-16T13:57:21.862Z,9.85
2022-08-16T13:59:43.890Z,11.68
2022-08-16T14:01:55.740Z,9.85
2022-08-16T14:03:58.400Z,18.40
2022-08-16T14:06:00.700Z,14.38
2022-08-16T14:08:03.048Z,9.50
2022-08-16T14:10:10.948Z,10.38
2022-08-16T14:12:27.538Z,17.33
2022-08-16T14:14:31.467Z,12.40
2022-08-16T14:16:34.811Z,12.48
2022-08-16T14:18:37.192Z,15.27
2022-08-16T14:20:39.225Z,11.68
2022-08-16T14:22:54.543Z,13.70
2022-08-16T14:24:57.128Z,14.38
2022-08-16T14:26:59.099Z,12.65
2022-08-16T14:29:03.894Z,11.73
2022-08-16T14:31:06.659Z,11.82
2022-08-16T14:33:10.422Z,13.68
2022-08-16T14:35:18.464Z,19.27
2022-08-16T14:37:20.591Z,19.48
2022-08-16T14:39:24.693Z,14.43
2022-08-16T14:41:27.927Z,15.63
2022-08-16T14:43:30.859Z,13.20
2022-08-16T14:45:33.201Z,15.40
2022-08-16T14:47:37.423Z,17.83
2022-08-16T14:49:40.677Z,12.38
2022-08-16T14:51:46.226Z,17.52
2022-08-16T14:53:52.036Z,11.90
2022-08-16T14:55:55.058Z,11.63
2022-08-16T14:57:57.152Z,16.77
2022-08-16T15:00:04.733Z,16.88
2022-08-16T15:02:23.467Z,14.38
2022-08-16T15:04:39.628Z,21.75
2022-08-16T15:06:50.209Z,23.10
2022-08-16T15:08:52.707Z,26.02
2022-08-16T15:12:58.429Z,9.40
2022-08-16T15:15:01.123Z,16.58
2022-08-16T15:17:03.163Z,20.40
2022-08-16T15:19:05.739Z,9.40
2022-08-16T15:21:08.449Z,10.40
2022-08-16T15:23:10.901Z,10.52
2022-08-16T15:25:29.497Z,10.60
2022-08-16T15:27:35.993Z,10.93
2022-08-16T15:29:38.871Z,13.65
2022-08-16T15:31:41.627Z,9.88
2022-08-16T15:33:51.030Z,12.27
2022-08-16T15:36:00.130Z,18.67
2022-08-16T15:38:09.218Z,15.88
2022-08-16T15:40:26.747Z,11.25
2022-08-16T15:42:35.027Z,17.45
2022-08-16T15:44:51.907Z,12.45
2022-08-16T15:46:58.784Z,12.27
2022-08-16T15:49:04.545Z,11.82
2022-08-16T15:51:08.320Z,12.32
2022-08-16T15:53:21.217Z,13.18
2022-08-16T15:55:29.837Z,13.93
2022-08-16T15:57:41.634Z,15.45
2022-08-16T15:59:49.078Z,10.15
2022-08-16T16:01:58.265Z,10.77
2022-08-16T16:04:00.345Z,10.95
2022-08-16T16:06:03.738Z,13.82
2022-08-16T16:08:09.862Z,12.05
2022-08-16T16:10:13.723Z,11.65
2022-08-16T16:12:42.045Z,16.10
2022-08-16T16:14:37.787Z,12.98
2022-08-16T16:16:41.772Z,11.73
2022-08-16T16:18:49.061Z,9.43
2022-08-16T16:20:54.183Z,11.93
2022-08-16T16:23:00.995Z,9.55
2022-08-16T16:25:03.013Z,12.65
2022-08-16T16:27:06.658Z,10.85
2022-08-16T16:29:15.064Z,11.70
2022-08-16T16:31:18.855Z,12.98
2022-08-16T16:33:24.677Z,15.50
2022-08-16T16:35:27.766Z,13.32
2022-08-16T16:37:34.883Z,14.52
2022-08-16T16:39:39.173Z,10.65
2022-08-16T16:41:43.262Z,12.30
2022-08-16T16:43:45.369Z,11.90
2022-08-16T16:45:47.394Z,12.05
2022-08-16T16:47:49.829Z,13.02
2022-08-16T16:49:56.474Z,11.10
2022-08-16T16:52:06.741Z,10.65
2022-08-16T16:54:09.823Z,11.00
2022-08-16T16:56:20.379Z,18.00
2022-08-16T16:58:53.953Z,14.05
2022-08-16T17:00:58.941Z,14.10
2022-08-16T17:03:01.948Z,17.85
2022-08-16T17:05:04.874Z,23.02
2022-08-16T17:07:11.835Z,11.07
2022-08-16T17:09:14.337Z,14.70
2022-08-16T17:11:16.363Z,14.13
2022-08-16T17:13:20.536Z,12.45
2022-08-16T17:15:23.725Z,8.98
2022-08-16T17:17:26.466Z,9.40
2022-08-16T17:19:31.493Z,9.05
2022-08-16T17:21:36.961Z,13.73
2022-08-16T17:23:59.090Z,11.18
2022-08-16T17:26:01.224Z,10.18
2022-08-16T17:28:58.810Z,17.65
2022-08-16T17:30:44.763Z,12.30
2022-08-16T17:32:54.543Z,14.35
2022-08-16T17:35:00.387Z,11.32
2022-08-16T17:37:08.183Z,14.65
2022-08-16T17:39:12.223Z,11.43
2022-08-16T17:41:17.325Z,9.07
2022-08-16T17:43:27.562Z,10.27
2022-08-16T17:45:29.606Z,15.10
2022-08-16T17:47:31.621Z,11.20
2022-08-16T17:49:33.630Z,12.98
2022-08-16T17:51:35.682Z,10.57
2022-08-16T17:53:37.679Z,8.93
2022-08-16T17:55:42.897Z,12.48
2022-08-16T17:57:44.901Z,10.55
2022-08-16T17:59:50.141Z,13.00
2022-08-16T18:01:53.566Z,13.38
2022-08-16T18:04:06.638Z,11.63
2022-08-16T18:06:12.275Z,12.15
2022-08-16T18:08:15.454Z,11.93
2022-08-16T18:10:31.235Z,12.20
2022-08-16T18:12:50.754Z,15.00
2022-08-16T18:15:00.159Z,12.77
2022-08-16T18:17:02.433Z,13.18
2022-08-16T18:19:04.459Z,11.20
2022-08-16T18:21:25.198Z,13.25
2022-08-16T18:23:27.402Z,15.30
2022-08-16T18:25:29.418Z,12.55
2022-08-16T18:27:32.749Z,17.33
2022-08-16T18:29:34.861Z,16.73
2022-08-16T18:31:37.262Z,13.18
2022-08-16T18:33:43.330Z,14.75
2022-08-16T18:35:46.162Z,16.73
2022-08-16T18:37:48.418Z,16.10
2022-08-16T18:39:50.693Z,13.63
2022-08-16T18:41:52.944Z,12.85
2022-08-16T18:44:26.272Z,15.52
2022-08-16T18:46:17.021Z,16.65
2022-08-16T18:48:20.662Z,15.07
2022-08-16T18:50:23.245Z,12.98
2022-08-16T18:54:29.436Z,12.55
2022-08-16T18:56:54.366Z,14.18
2022-08-16T18:58:53.561Z,11.30
2022-08-16T19:00:56.903Z,14.80
2022-08-16T19:03:19.163Z,13.32
2022-08-16T19:05:25.254Z,15.95
2022-08-16T19:07:30.619Z,18.10
2022-08-16T19:09:34.004Z,14.43
2022-08-16T19:11:37.176Z,13.85
2022-08-16T19:13:40.551Z,12.73
2022-08-16T19:15:43.188Z,17.30
2022-08-16T19:19:47.347Z,13.93
2022-08-16T19:21:49.380Z,13.10
2022-08-16T19:23:52.794Z,13.10
2022-08-16T19:26:00.150Z,13.52
2022-08-16T19:28:02.158Z,14.65
2022-08-16T19:30:09.569Z,12.73
2022-08-16T19:34:20.799Z,12.00
2022-08-16T19:36:38.315Z,13.88
2022-08-16T19:38:40.322Z,13.50
2022-08-16T19:40:43.933Z,16.58
2022-08-16T19:42:48.335Z,18.05
2022-08-16T19:44:52.668Z,17.38
2022-08-16T19:46:54.964Z,19.77
2022-08-16T19:48:56.973Z,15.43
2022-08-16T19:50:58.988Z,14.25
2022-08-16T19:53:18.870Z,20.33
2022-08-16T19:55:22.684Z,22.55
2022-08-16T19:57:26.384Z,21.13
2022-08-16T19:59:39.545Z,21.80
2022-08-16T20:01:43.662Z,23.05
2022-08-16T20:03:45.788Z,19.38
2022-08-16T20:05:50.434Z,21.40
2022-08-16T20:07:52.521Z,23.13
2022-08-16T20:09:57.838Z,16.95
2022-08-16T20:12:14.642Z,18.40
2022-08-16T20:14:24.491Z,21.77
2022-08-16T20:16:27.877Z,15.68
2022-08-16T20:18:29.888Z,26.88
2022-08-16T20:20:31.910Z,21.00
2022-08-16T20:22:53.062Z,19.02
2022-08-16T20:24:56.120Z,18.17
2022-08-16T20:26:58.169Z,19.73
2022-08-16T20:29:00.185Z,19.77
2022-08-16T20:31:02.192Z,17.58
2022-08-16T20:33:11.044Z,20.25
2022-08-16T20:35:17.851Z,15.07
2022-08-16T20:37:22.010Z,17.95
2022-08-16T20:39:24.365Z,21.00
2022-08-16T20:41:27.278Z,22.52
2022-08-16T20:43:29.267Z,22.70
2022-08-16T20:45:31.458Z,15.95
2022-08-16T20:47:33.643Z,15.63
2022-08-16T20:49:36.145Z,19.02
2022-08-16T20:51:46.859Z,18.85
2022-08-16T20:55:53.099Z,17.63
2022-08-16T20:57:55.322Z,18.88
2022-08-16T20:59:57.383Z,13.55
2022-08-16T21:01:59.488Z,12.23
2022-08-16T21:04:01.583Z,18.48
2022-08-16T21:06:04.354Z,19.33
2022-08-16T21:08:52.787Z,13.88
2022-08-16T21:10:28.409Z,15.93
2022-08-16T21:12:33.826Z,18.55
2022-08-16T21:14:42.931Z,17.38
2022-08-16T21:16:44.940Z,19.33
2022-08-16T21:18:47.089Z,17.40
2022-08-16T21:20:49.129Z,17.63
2022-08-16T21:22:56.301Z,18.05
2022-08-16T21:24:58.440Z,15.77
2022-08-16T21:27:02.754Z,19.58
2022-08-16T21:29:05.355Z,16.27
2022-08-16T21:31:11.517Z,15.63
2022-08-16T21:33:16.242Z,15.18
2022-08-16T21:35:18.675Z,20.40
2022-08-16T21:37:20.719Z,15.10
2022-08-16T21:39:22.716Z,18.98
2022-08-16T21:41:24.697Z,20.58
2022-08-16T21:43:31.940Z,18.17
2022-08-16T21:45:34.349Z,21.50
2022-08-16T21:47:36.376Z,17.25
2022-08-16T21:49:38.663Z,18.00
2022-08-16T21:51:40.652Z,17.85
2022-08-16T21:53:43.417Z,17.10
2022-08-16T21:55:47.764Z,20.65
2022-08-16T21:57:49.746Z,18.65
2022-08-16T21:59:52.973Z,18.58
2022-08-16T22:01:55.046Z,18.92
2022-08-16T22:04:26.706Z,24.33
2022-08-16T22:06:19.376Z,23.73
2022-08-16T22:08:21.541Z,20.67
2022-08-16T22:11:07.061Z,17.98
2022-08-16T22:12:46.330Z,20.25
2022-08-16T22:14:49.092Z,23.15
2022-08-16T22:16:51.160Z,24.13
2022-08-16T22:18:53.159Z,21.27
2022-08-16T22:20:55.156Z,18.92
2022-08-16T22:23:10.006Z,25.02
2022-08-16T22:25:12.581Z,21.75
2022-08-16T22:27:15.009Z,24.42
2022-08-16T22:29:17.063Z,27.08
2022-08-16T22:31:19.107Z,20.38
2022-08-16T22:33:26.356Z,22.02
2022-08-16T22:35:28.384Z,21.30
2022-08-16T22:37:30.407Z,20.98
2022-08-16T22:39:32.471Z,20.55
2022-08-16T22:41:34.991Z,19.52
2022-08-16T22:43:37.067Z,25.35
2022-08-16T22:45:39.356Z,28.73
2022-08-16T22:47:41.823Z,20.10
2022-08-16T22:49:43.823Z,25.00
2022-08-16T22:51:46.477Z,19.58
2022-08-16T22:55:50.822Z,18.70
2022-08-16T22:57:53.277Z,22.88
2022-08-16T22:59:55.313Z,21.48
2022-08-16T23:01:57.809Z,23.65
2022-08-16T23:06:01.999Z,22.50
2022-08-16T23:08:05.006Z,22.85
2022-08-16T23:10:07.391Z,21.92
2022-08-16T23:12:09.846Z,22.00
2022-08-16T23:14:11.840Z,24.25
2022-08-16T23:16:14.113Z,30.02
2022-08-16T23:18:16.680Z,30.25
2022-08-16T23:20:27.287Z,26.45
2022-08-16T23:23:19.892Z,25.88
2022-08-16T23:25:07.804Z,25.23
2022-08-16T23:27:09.814Z,23.27
2022-08-16T23:29:12.148Z,26.60
2022-08-16T23:31:18.184Z,19.60
2022-08-16T23:33:20.934Z,21.77
2022-08-16T23:37:27.053Z,24.48
2022-08-16T23:39:29.511Z,26.10
2022-08-16T23:41:34.931Z,27.83
2022-08-16T23:43:41.916Z,22.60
2022-08-16T23:45:54.189Z,21.48
2022-08-16T23:47:56.462Z,25.23
2022-08-16T23:50:03.436Z,25.20
2022-08-16T23:52:08.214Z,23.48
2022-08-16T23:54:11.612Z,27.23
2022-08-16T23:56:18.440Z,21.17
2022-08-16T23:58:24.581Z,24.75
